createdAt,value
2022-09-24T00:04:33.367Z,16.45
2022-09-24T00:09:34.856Z,16.90
2022-09-24T00:14:36.345Z,21.10
2022-09-24T00:19:38.003Z,24.55
2022-09-24T00:24:58.177Z,25.48
2022-09-24T00:29:59.631Z,27.25
2022-09-24T00:35:01.148Z,26.52
2022-09-24T00:40:02.691Z,27.45
2022-09-24T00:45:05.272Z,28.13
2022-09-24T00:50:15.471Z,28.65
2022-09-24T00:55:19.848Z,30.20
2022-09-24T01:00:22.274Z,30.33
2022-09-24T01:05:23.747Z,33.47
2022-09-24T01:10:51.115Z,33.17
2022-09-24T01:16:04.120Z,33.13
2022-09-24T01:21:25.675Z,36.00
2022-09-24T01:26:45.521Z,35.80
2022-09-24T01:32:13.039Z,34.10
2022-09-24T01:37:18.246Z,35.28
2022-09-24T01:42:22.037Z,34.75
2022-09-24T01:47:34.674Z,37.80
2022-09-24T01:52:52.347Z,36.15
2022-09-24T01:58:02.914Z,36.60
2022-09-24T02:03:10.375Z,38.90
2022-09-24T02:13:27.612Z,38.88
2022-09-24T02:18:34.718Z,38.67
2022-09-24T02:23:40.932Z,39.35
2022-09-24T02:28:42.542Z,40.25
2022-09-24T02:34:07.523Z,40.50
2022-09-24T02:39:09.272Z,38.25
2022-09-24T02:44:10.744Z,39.03
2022-09-24T02:49:13.275Z,36.85
2022-09-24T02:54:14.846Z,35.22
2022-09-24T02:59:16.488Z,40.78
2022-09-24T03:04:17.987Z,41.92
2022-09-24T03:09:19.466Z,42.47
2022-09-24T03:14:20.951Z,37.90
2022-09-24T03:19:22.455Z,37.50
2022-09-24T03:24:23.972Z,34.80
2022-09-24T03:29:44.251Z,31.52
2022-09-24T03:34:45.846Z,24.02
2022-09-24T03:39:47.307Z,23.67
2022-09-24T03:44:48.798Z,10.02
2022-09-24T03:49:50.271Z,7.95
2022-09-24T03:54:51.943Z,3.92
2022-09-24T03:59:54.158Z,2.70
2022-09-24T04:04:55.669Z,2.90
2022-09-24T04:09:57.141Z,2.25
2022-09-24T04:14:58.616Z,2.72
2022-09-24T04:20:03.707Z,2.60
2022-09-24T04:25:05.646Z,2.60
2022-09-24T04:30:08.118Z,2.67
2022-09-24T04:35:10.100Z,2.78
2022-09-24T04:40:12.640Z,2.92
2022-09-24T04:45:20.039Z,3.13
2022-09-24T04:50:21.768Z,2.97
2022-09-24T04:55:24.059Z,2.40
2022-09-24T05:00:25.907Z,3.33
2022-09-24T05:05:28.021Z,2.90
2022-09-24T05:10:31.619Z,2.55
2022-09-24T05:15:33.246Z,3.03
2022-09-24T05:20:34.774Z,3.10
2022-09-24T05:25:56.362Z,2.63
2022-09-24T05:30:58.553Z,2.47
2022-09-24T05:36:00.104Z,3.15
2022-09-24T05:41:03.277Z,2.55
2022-09-24T05:46:04.936Z,2.90
2022-09-24T05:51:06.916Z,3.20
2022-09-24T05:56:10.316Z,2.50
2022-09-24T06:01:11.772Z,3.03
2022-09-24T06:06:13.586Z,1.90
2022-09-24T06:11:15.086Z,3.22
2022-09-24T06:16:17.091Z,2.67
2022-09-24T06:21:18.627Z,2.20
2022-09-24T06:26:20.264Z,2.53
2022-09-24T06:31:21.913Z,2.28
2022-09-24T06:36:23.513Z,2.08
2022-09-24T06:41:25.085Z,1.90
2022-09-24T06:46:26.818Z,2.53
2022-09-24T06:51:28.442Z,3.10
2022-09-24T06:56:31.063Z,2.00
2022-09-24T07:01:32.831Z,2.10
2022-09-24T07:06:54.667Z,2.17
2022-09-24T07:11:58.573Z,1.75
2022-09-24T07:17:00.303Z,2.63
2022-09-24T07:22:01.867Z,2.72
2022-09-24T07:27:06.662Z,2.53
2022-09-24T07:32:08.363Z,1.75
2022-09-24T07:37:09.916Z,1.90
2022-09-24T07:42:11.550Z,1.70
2022-09-24T07:47:15.671Z,2.42
2022-09-24T07:52:17.350Z,2.42
2022-09-24T07:57:18.888Z,13.35
2022-09-24T08:02:20.465Z,1.90
2022-09-24T08:07:22.093Z,2.22
2022-09-24T08:12:27.678Z,1.95
2022-09-24T08:17:29.299Z,2.05
2022-09-24T08:22:31.462Z,2.60
2022-09-24T08:27:34.415Z,2.10
2022-09-24T08:32:36.003Z,2.03
2022-09-24T08:37:38.422Z,2.50
2022-09-24T08:42:56.191Z,1.95
2022-09-24T08:53:07.193Z,1.73
2022-09-24T08:58:17.496Z,2.67
2022-09-24T09:03:47.651Z,1.90
2022-09-24T09:09:16.626Z,2.13
2022-09-24T09:14:42.217Z,1.90
2022-09-24T09:19:54.027Z,2.03
2022-09-24T09:25:04.368Z,2.10
2022-09-24T09:30:14.558Z,1.80
2022-09-24T09:35:22.002Z,1.90
2022-09-24T09:45:55.533Z,1.75
2022-09-24T09:51:05.094Z,2.08
2022-09-24T09:56:08.253Z,2.65
2022-09-24T10:01:15.736Z,1.75
2022-09-24T10:11:26.407Z,1.67
2022-09-24T10:16:28.044Z,1.27
2022-09-24T10:21:36.406Z,1.50
2022-09-24T10:26:45.508Z,1.77
2022-09-24T10:31:48.987Z,1.77
2022-09-24T10:36:59.525Z,2.72
2022-09-24T10:42:01.185Z,1.85
2022-09-24T10:47:25.455Z,2.03
2022-09-24T10:52:54.395Z,1.65
2022-09-24T10:58:03.031Z,2.38
2022-09-24T11:03:58.234Z,2.40
2022-09-24T11:09:05.512Z,1.88
2022-09-24T11:19:48.057Z,1.50
2022-09-24T11:25:15.721Z,1.42
2022-09-24T11:30:24.922Z,1.20
2022-09-24T11:35:56.578Z,1.60
2022-09-24T11:41:11.857Z,1.58
2022-09-24T11:46:22.659Z,2.20
2022-09-24T11:51:26.962Z,2.05
2022-09-24T11:56:41.184Z,1.52
2022-09-24T12:01:50.712Z,1.85
2022-09-24T12:07:00.277Z,1.70
2022-09-24T12:12:08.936Z,1.75
2022-09-24T12:17:18.463Z,2.17
2022-09-24T12:22:21.957Z,1.90
2022-09-24T12:27:33.691Z,2.30
2022-09-24T12:32:53.529Z,2.33
2022-09-24T12:38:06.237Z,2.28
2022-09-24T12:43:25.352Z,1.95
2022-09-24T12:48:28.852Z,1.38
2022-09-24T12:53:43.306Z,2.17
2022-09-24T12:58:45.215Z,1.52
2022-09-24T13:03:47.546Z,1.65
2022-09-24T13:08:50.512Z,1.85
2022-09-24T13:14:00.744Z,1.52
2022-09-24T13:19:03.645Z,1.85
2022-09-24T13:24:11.928Z,1.75
2022-09-24T13:29:26.514Z,1.80
2022-09-24T13:34:30.222Z,1.60
2022-09-24T13:39:44.223Z,1.75
2022-09-24T13:44:54.379Z,1.23
2022-09-24T13:50:20.928Z,1.38
2022-09-24T13:55:31.223Z,1.48
2022-09-24T14:00:37.595Z,1.40
2022-09-24T14:05:39.337Z,1.40
2022-09-24T14:10:41.847Z,1.20
2022-09-24T14:16:10.373Z,1.13
2022-09-24T14:21:17.763Z,1.23
2022-09-24T14:31:27.006Z,1.30
2022-09-24T14:36:29.303Z,1.30
2022-09-24T14:41:36.348Z,1.55
2022-09-24T14:46:48.780Z,1.40
2022-09-24T14:51:54.956Z,1.58
2022-09-24T14:56:56.865Z,1.15
2022-09-24T15:02:17.375Z,0.95
2022-09-24T15:07:24.077Z,1.00
2022-09-24T15:12:32.434Z,1.20
2022-09-24T15:17:36.177Z,2.03
2022-09-24T15:22:38.039Z,0.90
2022-09-24T15:27:40.407Z,1.00
2022-09-24T15:32:42.077Z,1.35
2022-09-24T15:37:44.761Z,1.10
2022-09-24T15:42:46.374Z,1.35
2022-09-24T15:47:51.817Z,1.38
2022-09-24T15:52:59.718Z,1.00
2022-09-24T15:58:02.091Z,1.10
2022-09-24T16:03:03.853Z,0.98
2022-09-24T16:08:05.485Z,1.27
2022-09-24T16:13:08.161Z,1.60
2022-09-24T16:18:13.539Z,1.20
2022-09-24T16:23:16.676Z,1.52
2022-09-24T16:28:18.215Z,1.40
2022-09-24T16:33:19.955Z,0.93
2022-09-24T16:38:23.059Z,1.30
2022-09-24T16:43:24.951Z,1.30
2022-09-24T16:48:26.876Z,1.10
2022-09-24T16:53:28.435Z,1.33
2022-09-24T16:58:32.180Z,1.85
2022-09-24T17:03:34.482Z,1.30
2022-09-24T17:08:54.989Z,1.50
2022-09-24T17:13:57.280Z,1.15
2022-09-24T17:18:58.943Z,1.35
2022-09-24T17:24:00.519Z,1.20
2022-09-24T17:29:02.107Z,1.20
2022-09-24T17:34:07.026Z,1.20
2022-09-24T17:39:08.840Z,1.30
2022-09-24T17:44:12.604Z,1.13
2022-09-24T17:49:15.553Z,1.83
2022-09-24T17:54:21.214Z,1.63
2022-09-24T17:59:26.722Z,1.67
2022-09-24T18:04:31.261Z,1.30
2022-09-24T18:09:32.974Z,1.33
2022-09-24T18:14:35.008Z,1.48
2022-09-24T18:19:36.587Z,1.35
2022-09-24T18:24:38.157Z,1.90
2022-09-24T18:29:40.376Z,1.77
2022-09-24T18:34:41.946Z,3.63
2022-09-24T18:39:44.086Z,2.83
2022-09-24T18:44:47.010Z,1.33
2022-09-24T18:49:49.314Z,1.48
2022-09-24T18:54:50.821Z,1.75
2022-09-24T18:59:52.343Z,1.35
2022-09-24T19:04:53.831Z,1.30
2022-09-24T19:09:55.655Z,1.50
2022-09-24T19:14:58.631Z,1.33
2022-09-24T19:20:00.148Z,2.42
2022-09-24T19:25:01.651Z,1.58
2022-09-24T19:30:03.225Z,2.15
2022-09-24T19:35:05.033Z,0.98
2022-09-24T19:40:07.440Z,1.48
2022-09-24T19:45:10.256Z,1.55
2022-09-24T19:50:17.208Z,1.10
2022-09-24T19:55:19.161Z,1.08
2022-09-24T20:00:23.579Z,1.20
2022-09-24T20:05:25.058Z,1.50
2022-09-24T20:10:26.773Z,1.60
2022-09-24T20:15:29.724Z,1.25
2022-09-24T20:20:31.380Z,1.30
2022-09-24T20:25:51.714Z,1.30
2022-09-24T20:30:53.916Z,1.10
2022-09-24T20:36:02.166Z,2.40
2022-09-24T20:41:08.419Z,3.95
2022-09-24T20:46:14.136Z,1.85
2022-09-24T20:51:18.356Z,1.60
2022-09-24T20:56:20.591Z,1.40
2022-09-24T21:01:22.474Z,1.63
2022-09-24T21:06:24.882Z,1.70
2022-09-24T21:11:26.676Z,3.40
2022-09-24T21:16:34.028Z,2.83
2022-09-24T21:21:39.028Z,1.73
2022-09-24T21:26:41.582Z,1.88
2022-09-24T21:31:45.889Z,1.52
2022-09-24T21:36:47.516Z,1.30
2022-09-24T21:41:50.255Z,1.55
2022-09-24T21:46:53.114Z,1.75
2022-09-24T21:51:55.618Z,0.90
2022-09-24T21:56:57.072Z,1.10
2022-09-24T22:01:58.943Z,1.80
2022-09-24T22:07:01.122Z,2.00
2022-09-24T22:12:04.727Z,3.25
2022-09-24T22:17:06.924Z,2.20
2022-09-24T22:22:08.432Z,1.80
2022-09-24T22:27:10.006Z,2.15
2022-09-24T22:32:11.503Z,1.90
2022-09-24T22:37:13.054Z,1.88
2022-09-24T22:42:14.557Z,2.25
2022-09-24T22:47:16.026Z,3.13
2022-09-24T22:52:17.487Z,2.38
2022-09-24T22:57:19.658Z,1.88
2022-09-24T23:02:22.070Z,1.27
2022-09-24T23:07:23.618Z,4.13
2022-09-24T23:12:25.119Z,2.63
2022-09-24T23:17:27.148Z,2.00
2022-09-24T23:22:28.998Z,1.75
2022-09-24T23:27:32.171Z,1.67
2022-09-24T23:32:33.650Z,1.98
2022-09-24T23:37:36.106Z,1.83
2022-09-24T23:42:37.633Z,1.80
2022-09-24T23:47:39.116Z,2.90
2022-09-24T23:52:40.580Z,2.05
2022-09-24T23:57:42.037Z,1.83
